createdAt,value
2017-10-03T00:00:42.235Z,0.00
2017-10-03T00:01:42.218Z,0.00
2017-10-03T00:02:42.204Z,0.00
2017-10-03T00:03:42.190Z,0.00
2017-10-03T00:04:42.177Z,0.00
2017-10-03T00:05:42.163Z,0.00
2017-10-03T00:06:42.149Z,0.00
2017-10-03T00:07:42.135Z,0.00
2017-10-03T00:08:42.121Z,0.00
2017-10-03T00:09:42.108Z,0.00
2017-10-03T00:10:42.094Z,0.00
2017-10-03T00:11:42.080Z,0.00
2017-10-03T00:12:42.067Z,0.00
2017-10-03T00:13:42.053Z,0.00
2017-10-03T00:14:42.039Z,0.00
2017-10-03T00:15:42.025Z,0.00
2017-10-03T00:16:42.012Z,0.00
2017-10-03T00:17:41.998Z,0.00
2017-10-03T00:18:41.984Z,0.00
2017-10-03T00:19:41.970Z,0.00
2017-10-03T00:20:41.956Z,0.00
2017-10-03T00:21:41.943Z,0.00
2017-10-03T00:22:41.929Z,0.00
2017-10-03T00:23:41.915Z,0.00
2017-10-03T00:24:41.902Z,0.00
2017-10-03T00:25:41.888Z,0.00
2017-10-03T00:26:41.874Z,0.00
2017-10-03T00:27:41.860Z,0.00
2017-10-03T00:28:41.847Z,0.00
2017-10-03T00:29:41.837Z,0.00
2017-10-03T00:30:41.819Z,0.00
2017-10-03T00:31:41.805Z,0.00
2017-10-03T00:32:41.792Z,0.00
2017-10-03T00:33:41.779Z,0.00
2017-10-03T00:34:41.764Z,0.00
2017-10-03T00:35:41.750Z,0.00
2017-10-03T00:36:41.737Z,0.00
2017-10-03T00:37:41.723Z,0.00
2017-10-03T00:38:41.709Z,0.00
2017-10-03T00:39:41.695Z,0.00
2017-10-03T00:40:41.683Z,0.00
2017-10-03T00:41:41.669Z,0.00
2017-10-03T00:42:41.654Z,0.00
2017-10-03T00:43:41.640Z,0.00
2017-10-03T00:44:41.631Z,0.00
2017-10-03T00:45:41.614Z,0.00
2017-10-03T00:46:41.602Z,0.00
2017-10-03T00:47:41.586Z,0.00
2017-10-03T00:48:41.572Z,0.00
2017-10-03T00:49:41.573Z,0.00
2017-10-03T00:50:41.544Z,0.00
2017-10-03T00:51:41.538Z,0.00
2017-10-03T00:52:41.517Z,0.00
2017-10-03T00:53:41.503Z,0.00
2017-10-03T00:54:41.489Z,0.00
2017-10-03T00:55:41.475Z,0.00
2017-10-03T00:56:41.463Z,0.00
2017-10-03T00:57:41.448Z,0.00
2017-10-03T00:58:41.433Z,0.00
2017-10-03T00:59:41.420Z,0.00
2017-10-03T01:00:41.407Z,0.00
2017-10-03T01:01:41.393Z,0.00
2017-10-03T01:02:41.379Z,0.00
2017-10-03T01:03:41.365Z,0.00
2017-10-03T01:04:41.352Z,0.00
2017-10-03T01:05:41.338Z,0.00
2017-10-03T01:06:41.323Z,0.00
2017-10-03T01:07:41.310Z,0.00
2017-10-03T01:08:41.296Z,0.00
2017-10-03T01:09:41.284Z,0.00
2017-10-03T01:10:41.268Z,0.00
2017-10-03T01:11:41.256Z,0.00
2017-10-03T01:12:41.242Z,0.00
2017-10-03T01:13:41.229Z,0.00
2017-10-03T01:14:41.214Z,0.00
2017-10-03T01:15:41.200Z,0.00
2017-10-03T01:16:41.186Z,0.00
2017-10-03T01:17:41.174Z,0.00
2017-10-03T01:18:41.159Z,0.00
2017-10-03T01:19:41.146Z,0.00
2017-10-03T01:20:41.132Z,0.00
2017-10-03T01:21:41.119Z,0.00
2017-10-03T01:22:41.104Z,0.00
2017-10-03T01:23:41.091Z,0.00
2017-10-03T01:24:41.079Z,0.00
2017-10-03T01:25:41.063Z,0.00
2017-10-03T01:26:41.050Z,0.00
2017-10-03T01:27:41.036Z,0.00
2017-10-03T01:28:41.023Z,0.00
2017-10-03T01:29:41.009Z,0.00
2017-10-03T01:30:40.994Z,0.00
2017-10-03T01:31:40.981Z,0.00
2017-10-03T01:32:40.968Z,0.00
2017-10-03T01:33:40.954Z,0.00
2017-10-03T01:34:40.939Z,0.00
2017-10-03T01:35:40.926Z,0.00
2017-10-03T01:36:40.911Z,0.00
2017-10-03T01:37:40.900Z,0.00
2017-10-03T01:38:40.884Z,0.00
2017-10-03T01:39:40.871Z,0.00
2017-10-03T01:40:40.858Z,0.00
2017-10-03T01:41:40.844Z,0.00
2017-10-03T01:42:40.828Z,0.00
2017-10-03T01:43:40.826Z,0.00
2017-10-03T01:44:40.802Z,0.00
2017-10-03T01:45:40.789Z,0.00
2017-10-03T01:46:40.775Z,0.00
2017-10-03T01:47:40.761Z,0.00
2017-10-03T01:48:40.749Z,0.00
2017-10-03T01:49:40.735Z,0.00
2017-10-03T01:50:40.720Z,0.00
2017-10-03T01:51:40.706Z,0.00
2017-10-03T01:52:40.693Z,0.00
2017-10-03T01:53:40.684Z,0.00
2017-10-03T01:54:40.665Z,0.00
2017-10-03T01:55:40.652Z,0.00
2017-10-03T01:56:40.638Z,0.00
2017-10-03T01:57:40.625Z,0.00
2017-10-03T01:58:40.611Z,0.00
2017-10-03T01:59:40.596Z,0.00
2017-10-03T02:00:40.583Z,0.00
2017-10-03T02:01:40.569Z,0.00
2017-10-03T02:02:40.555Z,0.00
2017-10-03T02:03:40.542Z,0.00
2017-10-03T02:04:40.527Z,0.00
2017-10-03T02:05:40.514Z,0.00
2017-10-03T02:06:40.499Z,0.00
2017-10-03T02:07:40.486Z,0.00
2017-10-03T02:08:40.472Z,0.00
2017-10-03T02:09:40.458Z,0.00
2017-10-03T02:10:40.444Z,0.00
2017-10-03T02:11:40.430Z,0.00
2017-10-03T02:12:40.417Z,0.00
2017-10-03T02:13:40.403Z,0.00
2017-10-03T02:14:40.388Z,0.00
2017-10-03T02:15:40.376Z,0.00
2017-10-03T02:16:40.362Z,0.00
2017-10-03T02:17:40.354Z,0.00
2017-10-03T02:18:40.334Z,0.00
2017-10-03T02:19:40.320Z,0.00
2017-10-03T02:20:40.307Z,0.00
2017-10-03T02:21:40.293Z,0.00
2017-10-03T02:22:40.278Z,0.00
2017-10-03T02:23:40.263Z,0.00
2017-10-03T02:24:40.251Z,0.00
2017-10-03T02:25:40.238Z,0.00
2017-10-03T02:26:40.221Z,0.00
2017-10-03T02:27:40.209Z,0.00
2017-10-03T02:28:40.195Z,0.00
2017-10-03T02:29:40.182Z,0.00
2017-10-03T02:30:40.167Z,0.00
2017-10-03T02:31:40.154Z,0.00
2017-10-03T02:32:40.141Z,0.00
2017-10-03T02:33:40.126Z,0.00
2017-10-03T02:34:40.112Z,0.00
2017-10-03T02:35:40.098Z,0.00
2017-10-03T02:36:40.084Z,0.00
2017-10-03T02:37:40.070Z,0.00
2017-10-03T02:38:40.056Z,0.00
2017-10-03T02:39:40.043Z,0.00
2017-10-03T02:40:40.030Z,0.00
2017-10-03T02:41:40.015Z,0.00
2017-10-03T02:42:40.000Z,0.00
2017-10-03T02:43:39.986Z,0.00
2017-10-03T02:44:39.973Z,0.00
2017-10-03T02:45:39.960Z,0.00
2017-10-03T02:46:39.945Z,0.00
2017-10-03T02:47:39.932Z,0.00
2017-10-03T02:48:39.918Z,0.00
2017-10-03T02:49:39.904Z,0.00
2017-10-03T02:50:39.890Z,0.00
2017-10-03T02:51:39.876Z,0.00
2017-10-03T02:52:39.862Z,0.00
2017-10-03T02:53:39.849Z,0.00
2017-10-03T02:54:39.838Z,0.00
2017-10-03T02:55:39.821Z,0.00
2017-10-03T02:56:39.807Z,0.00
2017-10-03T02:57:39.793Z,0.00
2017-10-03T02:58:39.778Z,0.00
2017-10-03T02:59:39.764Z,0.00
2017-10-03T03:00:39.750Z,0.00
2017-10-03T03:01:39.737Z,0.00
2017-10-03T03:02:39.722Z,0.00
2017-10-03T03:03:39.708Z,0.00
2017-10-03T03:04:39.695Z,0.00
2017-10-03T03:05:39.682Z,0.00
2017-10-03T03:06:39.667Z,0.00
2017-10-03T03:07:39.656Z,0.00
2017-10-03T03:08:39.639Z,0.00
2017-10-03T03:09:39.626Z,0.00
2017-10-03T03:10:39.611Z,0.00
2017-10-03T03:11:39.599Z,0.00
2017-10-03T03:12:39.584Z,0.00
2017-10-03T03:13:39.570Z,0.00
2017-10-03T03:14:39.556Z,0.00
2017-10-03T03:15:39.545Z,0.00
2017-10-03T03:16:39.531Z,0.00
2017-10-03T03:17:39.514Z,0.00
2017-10-03T03:18:39.499Z,0.00
2017-10-03T03:19:39.486Z,0.00
2017-10-03T03:20:39.472Z,0.00
2017-10-03T03:21:39.458Z,0.00
2017-10-03T03:22:39.444Z,0.00
2017-10-03T03:23:39.433Z,0.00
2017-10-03T03:24:39.416Z,0.00
2017-10-03T03:25:39.402Z,0.00
2017-10-03T03:26:39.388Z,0.00
2017-10-03T03:27:39.374Z,0.00
2017-10-03T03:28:39.360Z,0.00
2017-10-03T03:29:39.347Z,0.00
2017-10-03T03:30:39.332Z,0.00
2017-10-03T03:31:39.318Z,0.00
2017-10-03T03:32:39.306Z,0.00
2017-10-03T03:33:39.291Z,0.00
2017-10-03T03:34:39.276Z,0.00
2017-10-03T03:35:39.266Z,0.00
2017-10-03T03:36:39.248Z,0.00
2017-10-03T03:37:39.234Z,0.00
2017-10-03T03:38:39.220Z,0.00
2017-10-03T03:39:39.206Z,0.00
2017-10-03T03:40:39.193Z,0.00
2017-10-03T03:41:39.179Z,0.00
2017-10-03T03:42:39.164Z,0.00
2017-10-03T03:43:39.154Z,0.00
2017-10-03T03:44:39.137Z,0.00
2017-10-03T03:45:39.123Z,0.00
2017-10-03T03:46:39.109Z,0.00
2017-10-03T03:47:39.094Z,0.00
2017-10-03T03:48:39.081Z,0.00
2017-10-03T03:49:39.067Z,0.00
2017-10-03T03:50:39.052Z,0.00
2017-10-03T03:51:39.040Z,0.00
2017-10-03T03:52:39.032Z,0.00
2017-10-03T03:53:39.012Z,0.00
2017-10-03T03:54:38.997Z,0.00
2017-10-03T03:55:38.983Z,0.00
2017-10-03T03:56:38.970Z,0.00
2017-10-03T03:57:38.956Z,0.00
2017-10-03T03:58:38.946Z,0.00
2017-10-03T03:59:38.928Z,0.00
2017-10-03T04:00:38.914Z,0.00
2017-10-03T04:01:38.900Z,0.00
2017-10-03T04:02:38.886Z,0.00
2017-10-03T04:03:38.871Z,0.00
2017-10-03T04:04:38.858Z,0.00
2017-10-03T04:05:38.844Z,0.00
2017-10-03T04:06:38.829Z,0.00
2017-10-03T04:07:38.817Z,0.00
2017-10-03T04:08:38.802Z,0.00
2017-10-03T04:09:38.789Z,0.00
2017-10-03T04:10:38.774Z,0.00
2017-10-03T04:11:38.760Z,0.00
2017-10-03T04:12:38.746Z,0.00
2017-10-03T04:13:38.733Z,0.00
2017-10-03T04:14:38.718Z,0.00
2017-10-03T04:15:38.704Z,0.00
2017-10-03T04:16:38.691Z,0.00
2017-10-03T04:17:38.677Z,0.00
2017-10-03T04:18:38.662Z,0.00
2017-10-03T04:19:38.649Z,0.00
2017-10-03T04:20:38.640Z,0.00
2017-10-03T04:21:38.624Z,0.00
2017-10-03T04:22:38.605Z,0.00
2017-10-03T04:23:38.592Z,0.00
2017-10-03T04:24:38.578Z,0.00
2017-10-03T04:25:38.565Z,0.00
2017-10-03T04:26:38.549Z,0.00
2017-10-03T04:27:38.536Z,0.00
2017-10-03T04:28:38.521Z,0.00
2017-10-03T04:29:38.508Z,0.00
2017-10-03T04:30:38.494Z,0.00
2017-10-03T04:31:38.482Z,0.00
2017-10-03T04:32:38.466Z,0.00
2017-10-03T04:33:38.453Z,0.00
2017-10-03T04:34:38.438Z,0.00
2017-10-03T04:35:38.424Z,0.00
2017-10-03T04:36:38.411Z,0.00
2017-10-03T04:37:38.396Z,0.00
2017-10-03T04:38:38.382Z,0.00
2017-10-03T04:39:38.368Z,0.00
2017-10-03T04:40:38.358Z,0.00
2017-10-03T04:41:38.340Z,0.00
2017-10-03T04:42:38.326Z,0.00
2017-10-03T04:43:38.314Z,0.00
2017-10-03T04:44:38.298Z,0.00
2017-10-03T04:45:38.285Z,0.00
2017-10-03T04:46:38.271Z,0.00
2017-10-03T04:47:38.257Z,0.00
2017-10-03T04:48:38.243Z,0.00
2017-10-03T04:49:38.227Z,0.00
2017-10-03T04:50:38.213Z,0.00
2017-10-03T04:51:38.200Z,0.00
2017-10-03T04:52:38.186Z,0.00
2017-10-03T04:53:38.172Z,0.00
2017-10-03T04:54:38.158Z,0.00
2017-10-03T04:55:38.145Z,0.00
2017-10-03T04:56:38.130Z,0.00
2017-10-03T04:57:38.117Z,0.00
2017-10-03T04:58:38.119Z,0.00
2017-10-03T04:59:38.088Z,0.00
2017-10-03T05:00:38.076Z,0.00
2017-10-03T05:01:38.059Z,0.00
2017-10-03T05:02:38.046Z,0.00
2017-10-03T05:03:38.032Z,0.00
2017-10-03T05:04:38.018Z,0.00
2017-10-03T05:05:38.004Z,0.00
2017-10-03T05:06:37.989Z,0.00
2017-10-03T05:07:37.976Z,0.00
2017-10-03T05:08:37.962Z,0.00
2017-10-03T05:09:37.949Z,0.00
2017-10-03T05:10:37.934Z,0.00
2017-10-03T05:11:37.919Z,0.00
2017-10-03T05:12:37.906Z,0.00
2017-10-03T05:13:37.892Z,0.00
2017-10-03T05:14:37.878Z,0.00
2017-10-03T05:15:37.865Z,0.00
2017-10-03T05:16:37.850Z,4.00
2017-10-03T05:17:37.836Z,4.00
2017-10-03T05:18:37.822Z,4.00
2017-10-03T05:19:37.807Z,4.00
2017-10-03T05:20:37.794Z,8.00
2017-10-03T05:21:37.780Z,4.00
2017-10-03T05:22:37.766Z,4.00
2017-10-03T05:23:37.754Z,4.00
2017-10-03T05:24:37.740Z,4.00
2017-10-03T05:25:37.724Z,4.00
2017-10-03T05:26:37.709Z,4.00
2017-10-03T05:27:37.696Z,8.00
2017-10-03T05:28:37.682Z,8.00
2017-10-03T05:29:37.668Z,8.00
2017-10-03T05:30:37.654Z,12.00
2017-10-03T05:31:37.639Z,20.00
2017-10-03T05:32:37.625Z,24.00
2017-10-03T05:33:37.611Z,28.00
2017-10-03T05:34:37.596Z,32.00
2017-10-03T05:35:37.582Z,36.00
2017-10-03T05:36:37.573Z,40.00
2017-10-03T05:37:37.555Z,40.00
2017-10-03T05:38:37.540Z,44.00
2017-10-03T05:39:37.526Z,56.00
2017-10-03T05:40:37.513Z,64.00
2017-10-03T05:41:37.498Z,76.00
2017-10-03T05:42:37.488Z,92.00
2017-10-03T05:43:37.470Z,100.00
2017-10-03T05:44:37.455Z,116.00
2017-10-03T05:45:37.442Z,128.00
2017-10-03T05:46:37.428Z,144.00
2017-10-03T05:47:37.414Z,164.00
2017-10-03T05:48:37.401Z,176.00
2017-10-03T05:49:37.385Z,192.00
2017-10-03T05:50:37.371Z,204.00
2017-10-03T05:51:37.358Z,216.00
2017-10-03T05:52:37.344Z,224.00
2017-10-03T05:53:37.330Z,232.00
2017-10-03T05:54:37.315Z,236.00
2017-10-03T05:55:37.302Z,244.00
2017-10-03T05:56:37.287Z,248.00
2017-10-03T05:57:37.273Z,260.00
2017-10-03T05:58:37.259Z,260.00
2017-10-03T05:59:37.245Z,260.00
2017-10-03T06:00:37.231Z,284.00
2017-10-03T06:01:37.218Z,324.00
2017-10-03T06:02:37.203Z,340.00
2017-10-03T06:03:37.190Z,352.00
2017-10-03T06:04:37.175Z,376.00
2017-10-03T06:05:37.162Z,416.00
2017-10-03T06:06:37.147Z,440.00
2017-10-03T06:07:37.133Z,484.00
2017-10-03T06:08:37.119Z,516.00
2017-10-03T06:09:37.106Z,544.00
2017-10-03T06:10:37.091Z,628.00
2017-10-03T06:11:37.077Z,640.00
2017-10-03T06:12:37.064Z,592.00
2017-10-03T06:13:37.050Z,528.00
2017-10-03T06:14:37.035Z,460.00
2017-10-03T06:15:37.021Z,396.00
2017-10-03T06:16:37.007Z,368.00
2017-10-03T06:17:36.993Z,364.00
2017-10-03T06:18:36.979Z,384.00
2017-10-03T06:19:36.965Z,396.00
2017-10-03T06:20:36.951Z,408.00
2017-10-03T06:21:36.940Z,396.00
2017-10-03T06:22:36.922Z,400.00
2017-10-03T06:23:36.909Z,400.00
2017-10-03T06:24:36.895Z,392.00
2017-10-03T06:25:36.881Z,380.00
2017-10-03T06:26:36.866Z,380.00
2017-10-03T06:27:36.853Z,388.00
2017-10-03T06:28:36.839Z,388.00
2017-10-03T06:29:36.825Z,392.00
2017-10-03T06:30:36.811Z,404.00
2017-10-03T06:31:36.797Z,432.00
2017-10-03T06:32:36.784Z,456.00
2017-10-03T06:33:36.769Z,488.00
2017-10-03T06:34:36.754Z,516.00
2017-10-03T06:35:36.742Z,520.00
2017-10-03T06:36:36.729Z,548.00
2017-10-03T06:37:36.714Z,604.00
2017-10-03T06:38:36.698Z,664.00
2017-10-03T06:39:36.685Z,724.00
2017-10-03T06:40:36.672Z,764.00
2017-10-03T06:41:36.657Z,800.00
2017-10-03T06:42:36.642Z,864.00
2017-10-03T06:43:36.631Z,948.00
2017-10-03T06:44:36.615Z,1156.00
2017-10-03T06:45:36.602Z,1132.00
2017-10-03T06:46:36.587Z,1072.00
2017-10-03T06:47:36.572Z,1108.00
2017-10-03T06:48:36.559Z,1208.00
2017-10-03T06:49:36.546Z,1268.00
2017-10-03T06:50:36.530Z,1056.00
2017-10-03T06:51:36.515Z,1012.00
2017-10-03T06:52:36.503Z,1116.00
2017-10-03T06:53:36.488Z,1220.00
2017-10-03T06:54:36.473Z,1252.00
2017-10-03T06:55:36.460Z,1216.00
2017-10-03T06:56:36.447Z,1152.00
2017-10-03T06:57:36.433Z,1100.00
2017-10-03T06:58:36.418Z,1084.00
2017-10-03T06:59:36.404Z,1080.00
2017-10-03T07:00:36.391Z,1064.00
2017-10-03T07:01:36.380Z,984.00
2017-10-03T07:02:36.362Z,952.00
2017-10-03T07:03:36.348Z,1032.00
2017-10-03T07:04:36.335Z,1164.00
2017-10-03T07:05:36.321Z,1192.00
2017-10-03T07:06:36.305Z,1368.00
2017-10-03T07:07:36.292Z,2036.00
2017-10-03T07:08:36.279Z,2740.00
2017-10-03T07:09:36.264Z,2760.00
2017-10-03T07:10:36.251Z,2260.00
2017-10-03T07:11:36.236Z,1872.00
2017-10-03T07:12:36.222Z,2076.00
2017-10-03T07:13:36.217Z,2136.00
2017-10-03T07:14:36.193Z,2052.00
2017-10-03T07:15:36.178Z,1980.00
2017-10-03T07:16:36.166Z,2120.00
2017-10-03T07:17:36.152Z,1996.00
2017-10-03T07:18:36.136Z,1624.00
2017-10-03T07:19:36.124Z,1320.00
2017-10-03T07:20:36.112Z,1240.00
2017-10-03T07:21:36.096Z,1292.00
2017-10-03T07:22:36.082Z,1432.00
2017-10-03T07:23:36.068Z,1492.00
2017-10-03T07:24:36.054Z,1708.00
2017-10-03T07:25:36.041Z,1980.00
2017-10-03T07:26:36.026Z,2996.00
2017-10-03T07:27:36.013Z,4728.00
2017-10-03T07:28:35.998Z,3340.00
2017-10-03T07:29:35.985Z,2496.00
2017-10-03T07:30:35.971Z,2936.00
2017-10-03T07:31:35.956Z,4044.00
2017-10-03T07:32:35.944Z,3148.00
2017-10-03T07:33:35.929Z,2356.00
2017-10-03T07:34:35.914Z,2156.00
2017-10-03T07:35:35.901Z,1916.00
2017-10-03T07:36:35.888Z,1476.00
2017-10-03T07:37:35.874Z,1236.00
2017-10-03T07:38:35.860Z,1296.00
2017-10-03T07:39:35.846Z,1492.00
2017-10-03T07:40:35.832Z,1648.00
2017-10-03T07:41:35.819Z,1640.00
2017-10-03T07:42:35.804Z,1556.00
2017-10-03T07:43:35.791Z,1452.00
2017-10-03T07:44:35.777Z,1428.00
2017-10-03T07:45:35.763Z,1500.00
2017-10-03T07:46:35.749Z,1752.00
2017-10-03T07:47:35.735Z,1928.00
2017-10-03T07:48:35.721Z,1880.00
2017-10-03T07:49:35.709Z,1932.00
2017-10-03T07:50:35.693Z,1992.00
2017-10-03T07:51:35.680Z,2116.00
2017-10-03T07:52:35.666Z,2208.00
2017-10-03T07:53:35.652Z,2148.00
2017-10-03T07:54:35.638Z,2664.00
2017-10-03T07:55:35.624Z,1872.00
2017-10-03T07:56:35.611Z,2308.00
2017-10-03T07:57:35.596Z,2236.00
2017-10-03T07:58:35.581Z,2564.00
2017-10-03T07:59:35.568Z,2700.00
2017-10-03T08:00:35.555Z,2372.00
2017-10-03T08:01:35.542Z,3020.00
2017-10-03T08:02:35.527Z,6448.00
2017-10-03T08:03:35.514Z,5500.00
2017-10-03T08:04:35.501Z,6104.00
2017-10-03T08:05:35.487Z,4036.00
2017-10-03T08:06:35.472Z,5264.00
2017-10-03T08:07:35.459Z,2464.00
2017-10-03T08:08:35.445Z,3372.00
2017-10-03T08:09:35.432Z,7300.00
2017-10-03T08:10:35.416Z,5604.00
2017-10-03T08:11:35.403Z,3920.00
2017-10-03T08:12:35.391Z,5672.00
2017-10-03T08:13:35.376Z,4704.00
2017-10-03T08:14:35.362Z,3868.00
2017-10-03T08:15:35.348Z,4640.00
2017-10-03T08:16:35.334Z,3972.00
2017-10-03T08:17:35.321Z,4428.00
2017-10-03T08:18:35.306Z,4188.00
2017-10-03T08:19:35.292Z,4688.00
2017-10-03T08:20:35.280Z,9480.00
2017-10-03T08:21:35.267Z,21248.00
2017-10-03T08:22:35.251Z,11800.00
2017-10-03T08:23:35.238Z,11080.00
2017-10-03T08:24:35.225Z,7464.00
2017-10-03T08:25:35.211Z,9932.00
2017-10-03T08:26:35.225Z,14168.00
2017-10-03T08:27:35.183Z,9536.00
2017-10-03T08:28:35.170Z,8996.00
2017-10-03T08:29:35.156Z,3316.00
2017-10-03T08:30:35.146Z,3836.00
2017-10-03T08:31:35.129Z,5784.00
2017-10-03T08:32:35.115Z,3912.00
2017-10-03T08:33:35.102Z,3232.00
2017-10-03T08:34:35.087Z,4344.00
2017-10-03T08:35:35.074Z,3512.00
2017-10-03T08:36:35.060Z,3616.00
2017-10-03T08:37:35.047Z,3444.00
2017-10-03T08:38:35.043Z,4024.00
2017-10-03T08:39:35.019Z,6492.00
2017-10-03T08:40:35.006Z,6408.00
2017-10-03T08:41:35.000Z,4368.00
2017-10-03T08:42:34.978Z,4328.00
2017-10-03T08:43:34.965Z,8520.00
2017-10-03T08:44:34.953Z,7876.00
2017-10-03T08:45:34.939Z,3756.00
2017-10-03T08:46:34.931Z,3000.00
2017-10-03T08:47:34.911Z,6480.00
2017-10-03T08:48:34.897Z,4820.00
2017-10-03T08:49:34.885Z,7564.00
2017-10-03T08:50:34.870Z,8436.00
2017-10-03T08:51:34.856Z,8468.00
2017-10-03T08:52:34.844Z,12088.00
2017-10-03T08:53:34.831Z,10868.00
2017-10-03T08:54:34.816Z,8460.00
2017-10-03T08:55:34.803Z,12892.00
2017-10-03T08:56:34.790Z,11156.00
2017-10-03T08:57:34.777Z,21856.00
2017-10-03T08:58:34.763Z,13148.00
2017-10-03T08:59:34.750Z,11204.00
2017-10-03T09:00:34.736Z,8884.00
2017-10-03T09:01:34.725Z,10500.00
2017-10-03T09:02:34.708Z,11912.00
2017-10-03T09:03:34.695Z,15752.00
2017-10-03T09:04:34.683Z,6364.00
2017-10-03T09:05:34.669Z,8428.00
2017-10-03T09:06:34.656Z,8792.00
2017-10-03T09:07:34.642Z,6764.00
2017-10-03T09:08:34.629Z,4660.00
2017-10-03T09:09:34.617Z,5388.00
2017-10-03T09:10:34.603Z,6528.00
2017-10-03T09:11:34.589Z,4704.00
2017-10-03T09:12:34.576Z,5696.00
2017-10-03T09:13:34.564Z,6760.00
2017-10-03T09:14:34.571Z,9620.00
2017-10-03T09:15:34.537Z,14880.00
2017-10-03T09:16:34.523Z,7604.00
2017-10-03T09:17:34.511Z,6772.00
2017-10-03T09:18:34.497Z,9112.00
2017-10-03T09:19:34.485Z,9020.00
2017-10-03T09:20:34.472Z,29984.00
2017-10-03T09:21:34.463Z,20320.00
2017-10-03T09:22:34.445Z,8176.00
2017-10-03T09:23:34.452Z,7744.00
2017-10-03T09:24:34.420Z,11348.00
2017-10-03T09:25:34.407Z,11396.00
2017-10-03T09:26:34.395Z,14948.00
2017-10-03T09:27:34.380Z,6680.00
2017-10-03T09:28:34.368Z,20416.00
2017-10-03T09:29:34.355Z,4712.00
2017-10-03T09:30:34.345Z,5568.00
2017-10-03T09:31:34.329Z,44864.00
2017-10-03T09:32:34.326Z,38816.00
2017-10-03T09:33:34.304Z,28864.00
2017-10-03T09:34:34.290Z,28928.00
2017-10-03T09:35:34.278Z,8100.00
2017-10-03T09:36:34.266Z,5592.00
2017-10-03T09:37:34.253Z,46560.00
2017-10-03T09:38:34.240Z,43872.00
2017-10-03T09:39:34.229Z,47296.00
2017-10-03T09:40:34.216Z,13296.00
2017-10-03T09:41:34.204Z,45312.00
2017-10-03T09:42:34.191Z,49952.00
2017-10-03T09:43:34.179Z,42176.00
2017-10-03T09:44:34.166Z,7548.00
2017-10-03T09:45:34.159Z,40288.00
2017-10-03T09:46:34.142Z,13140.00
2017-10-03T09:47:34.131Z,50784.00
2017-10-03T09:48:34.119Z,51392.00
2017-10-03T09:49:34.107Z,51200.00
2017-10-03T09:50:34.094Z,6012.00
2017-10-03T09:51:34.083Z,47744.00
2017-10-03T09:52:34.071Z,51264.00
2017-10-03T09:53:34.059Z,52320.00
2017-10-03T09:54:34.047Z,5052.00
2017-10-03T09:55:34.036Z,5484.00
2017-10-03T09:56:34.025Z,38784.00
2017-10-03T09:57:34.013Z,6328.00
2017-10-03T09:58:34.001Z,6384.00
2017-10-03T09:59:33.990Z,8240.00
2017-10-03T10:00:33.979Z,10608.00
2017-10-03T10:01:33.967Z,21728.00
2017-10-03T10:02:33.954Z,4148.00
2017-10-03T10:03:33.943Z,8424.00
2017-10-03T10:04:33.930Z,12116.00
2017-10-03T10:05:33.920Z,5252.00
2017-10-03T10:06:33.908Z,9008.00
2017-10-03T10:07:33.896Z,52928.00
2017-10-03T10:08:33.886Z,36384.00
2017-10-03T10:09:33.874Z,53664.00
2017-10-03T10:10:33.860Z,59200.00
2017-10-03T10:11:33.849Z,36672.00
2017-10-03T10:12:33.838Z,56864.00
2017-10-03T10:13:33.827Z,60928.00
2017-10-03T10:14:33.815Z,30656.00
2017-10-03T10:15:33.806Z,12580.00
2017-10-03T10:16:33.795Z,5508.00
2017-10-03T10:17:33.782Z,51584.00
2017-10-03T10:18:33.770Z,53792.00
2017-10-03T10:19:33.758Z,44512.00
2017-10-03T10:20:33.748Z,25024.00
2017-10-03T10:21:33.737Z,34304.00
2017-10-03T10:22:33.725Z,6520.00
2017-10-03T10:23:33.714Z,47616.00
2017-10-03T10:24:33.703Z,18272.00
2017-10-03T10:25:33.692Z,62560.00
2017-10-03T10:26:33.680Z,60352.00
2017-10-03T10:27:33.669Z,59648.00
2017-10-03T10:28:33.659Z,21088.00
2017-10-03T10:29:33.647Z,58624.00
2017-10-03T10:30:33.636Z,49408.00
2017-10-03T10:31:33.625Z,60512.00
2017-10-03T10:32:33.615Z,19616.00
2017-10-03T10:33:33.604Z,17264.00
2017-10-03T10:34:33.600Z,14856.00
2017-10-03T10:35:33.583Z,6484.00
2017-10-03T10:36:33.573Z,5648.00
2017-10-03T10:37:33.564Z,4956.00
2017-10-03T10:38:33.551Z,4716.00
2017-10-03T10:39:33.540Z,3964.00
2017-10-03T10:40:33.531Z,3644.00
2017-10-03T10:41:33.520Z,2404.00
2017-10-03T10:42:33.508Z,1428.00
2017-10-03T10:43:33.497Z,1208.00
2017-10-03T10:44:33.511Z,1376.00
2017-10-03T10:45:33.476Z,1624.00
2017-10-03T10:46:33.463Z,1460.00
2017-10-03T10:47:33.453Z,1260.00
2017-10-03T10:48:33.441Z,1604.00
2017-10-03T10:49:33.431Z,1380.00
2017-10-03T10:50:33.418Z,1352.00
2017-10-03T10:51:33.407Z,1580.00
2017-10-03T10:52:33.396Z,1816.00
2017-10-03T10:53:33.384Z,2216.00
2017-10-03T10:54:33.372Z,2656.00
2017-10-03T10:55:33.360Z,3344.00
2017-10-03T10:56:33.348Z,4320.00
2017-10-03T10:57:33.342Z,4992.00
2017-10-03T10:58:33.324Z,5120.00
2017-10-03T10:59:33.319Z,4708.00
2017-10-03T11:00:33.300Z,4756.00
2017-10-03T11:01:33.289Z,5932.00
2017-10-03T11:02:33.276Z,9144.00
2017-10-03T11:03:33.265Z,12084.00
2017-10-03T11:04:33.253Z,10156.00
2017-10-03T11:05:33.241Z,11160.00
2017-10-03T11:06:33.228Z,17536.00
2017-10-03T11:07:33.217Z,21600.00
2017-10-03T11:08:33.204Z,30048.00
2017-10-03T11:09:33.193Z,16884.00
2017-10-03T11:10:33.180Z,19136.00
2017-10-03T11:11:33.168Z,21280.00
2017-10-03T11:12:33.157Z,47968.00
2017-10-03T11:13:33.145Z,51808.00
2017-10-03T11:14:33.131Z,54560.00
2017-10-03T11:15:33.121Z,52384.00
2017-10-03T11:16:33.109Z,27456.00
2017-10-03T11:17:33.099Z,16880.00
2017-10-03T11:18:33.086Z,13796.00
2017-10-03T11:19:33.075Z,12336.00
2017-10-03T11:20:33.064Z,11852.00
2017-10-03T11:22:33.040Z,53280.00
2017-10-03T11:23:33.030Z,37472.00
2017-10-03T11:24:33.026Z,42848.00
2017-10-03T11:25:33.008Z,19776.00
2017-10-03T11:26:32.997Z,29312.00
2017-10-03T11:27:32.986Z,49056.00
2017-10-03T11:28:32.975Z,49248.00
2017-10-03T11:29:32.964Z,50720.00
2017-10-03T11:30:32.952Z,50304.00
2017-10-03T11:31:32.941Z,51808.00
2017-10-03T11:32:32.931Z,29312.00
2017-10-03T11:33:32.921Z,50528.00
2017-10-03T11:34:32.910Z,48416.00
2017-10-03T11:35:32.901Z,47168.00
2017-10-03T11:36:32.891Z,46432.00
2017-10-03T11:37:32.881Z,33280.00
2017-10-03T11:38:32.871Z,11836.00
2017-10-03T11:39:32.860Z,39616.00
2017-10-03T11:40:32.851Z,46080.00
2017-10-03T11:41:32.841Z,49856.00
2017-10-03T11:42:32.832Z,51744.00
2017-10-03T11:43:32.821Z,49920.00
2017-10-03T11:44:32.812Z,51136.00
2017-10-03T11:45:32.802Z,51552.00
2017-10-03T11:46:32.792Z,52064.00
2017-10-03T11:47:32.784Z,51008.00
2017-10-03T11:48:32.774Z,51040.00
2017-10-03T11:49:32.768Z,52128.00
2017-10-03T11:50:32.756Z,51680.00
2017-10-03T11:51:32.747Z,52256.00
2017-10-03T11:52:32.740Z,52608.00
2017-10-03T11:53:32.728Z,51136.00
2017-10-03T11:54:32.725Z,50272.00
2017-10-03T11:55:32.710Z,48960.00
2017-10-03T11:56:32.702Z,48928.00
2017-10-03T11:57:32.709Z,50432.00
2017-10-03T11:58:32.684Z,50912.00
2017-10-03T11:59:32.678Z,47776.00
2017-10-03T12:00:32.668Z,47104.00
2017-10-03T12:01:32.659Z,50720.00
2017-10-03T12:02:32.650Z,48800.00
2017-10-03T12:03:32.642Z,48096.00
2017-10-03T12:04:32.637Z,48928.00
2017-10-03T12:05:32.628Z,47744.00
2017-10-03T12:06:32.616Z,48384.00
2017-10-03T12:07:32.607Z,48416.00
2017-10-03T12:08:32.601Z,46912.00
2017-10-03T12:09:32.592Z,47552.00
2017-10-03T12:10:32.583Z,47456.00
2017-10-03T12:11:32.576Z,45440.00
2017-10-03T12:12:32.572Z,46720.00
2017-10-03T12:13:32.564Z,51040.00
2017-10-03T12:14:32.553Z,48736.00
2017-10-03T12:15:32.542Z,47904.00
2017-10-03T12:16:32.534Z,45184.00
2017-10-03T12:17:32.527Z,46016.00
2017-10-03T12:18:32.518Z,47200.00
2017-10-03T12:19:32.510Z,48288.00
2017-10-03T12:20:32.502Z,49152.00
2017-10-03T12:21:32.494Z,45888.00
2017-10-03T12:22:32.485Z,45312.00
2017-10-03T12:23:32.477Z,45792.00
2017-10-03T12:24:32.470Z,43776.00
2017-10-03T12:25:32.462Z,14004.00
2017-10-03T12:26:32.453Z,44768.00
2017-10-03T12:27:32.444Z,44896.00
2017-10-03T12:28:32.437Z,42816.00
2017-10-03T12:29:32.429Z,43168.00
2017-10-03T12:30:32.420Z,41184.00
2017-10-03T12:31:32.413Z,42080.00
2017-10-03T12:32:32.404Z,42752.00
2017-10-03T12:33:32.407Z,41536.00
2017-10-03T12:34:32.387Z,4156.00